createdAt,value
2022-12-17T00:01:18.531Z,61.90
2022-12-17T00:04:04.379Z,65.80
2022-12-17T00:06:50.119Z,60.40
2022-12-17T00:09:35.068Z,79.30
2022-12-17T00:12:20.198Z,61.00
2022-12-17T00:15:05.101Z,69.23
2022-12-17T00:17:50.135Z,73.27
2022-12-17T00:20:34.852Z,61.90
2022-12-17T00:23:22.147Z,56.37
2022-12-17T00:26:11.238Z,62.23
2022-12-17T00:28:56.966Z,67.17
2022-12-17T00:31:42.820Z,70.90
2022-12-17T00:34:27.672Z,58.27
2022-12-17T00:37:12.538Z,66.60
2022-12-17T00:39:59.383Z,56.63
2022-12-17T00:42:44.498Z,59.40
2022-12-17T00:45:29.448Z,60.93
2022-12-17T00:48:14.178Z,55.60
2022-12-17T00:50:59.181Z,60.00
2022-12-17T00:53:44.015Z,66.23
2022-12-17T00:56:29.334Z,65.17
2022-12-17T00:59:14.278Z,59.73
2022-12-17T01:01:59.278Z,69.13
2022-12-17T01:04:44.443Z,60.03
2022-12-17T01:07:29.724Z,58.87
2022-12-17T01:10:14.524Z,54.57
2022-12-17T01:12:59.671Z,61.80
2022-12-17T01:15:44.724Z,58.87
2022-12-17T01:18:37.218Z,61.17
2022-12-17T01:21:26.977Z,53.50
2022-12-17T01:24:11.799Z,63.13
2022-12-17T01:26:56.697Z,63.93
2022-12-17T01:29:41.474Z,56.03
2022-12-17T01:32:26.242Z,63.50
2022-12-17T01:35:11.098Z,62.50
2022-12-17T01:37:56.183Z,66.40
2022-12-17T01:40:40.989Z,61.37
2022-12-17T01:43:30.554Z,56.13
2022-12-17T01:46:16.778Z,51.20
2022-12-17T01:49:04.600Z,60.87
2022-12-17T01:52:00.989Z,57.97
2022-12-17T01:54:46.151Z,62.40
2022-12-17T01:57:31.553Z,61.33
2022-12-17T02:00:25.426Z,48.23
2022-12-17T02:03:10.626Z,49.83
2022-12-17T02:06:03.647Z,58.43
2022-12-17T02:09:10.361Z,53.87
2022-12-17T02:12:17.592Z,51.37
2022-12-17T02:15:40.601Z,58.73
2022-12-17T02:18:31.984Z,56.03
2022-12-17T02:21:18.292Z,60.90
2022-12-17T02:24:06.078Z,53.87
2022-12-17T02:27:09.971Z,55.80
2022-12-17T02:30:02.505Z,51.53
2022-12-17T02:32:49.133Z,49.47
2022-12-17T02:35:36.736Z,48.40
2022-12-17T02:38:35.387Z,45.03
2022-12-17T02:41:22.891Z,53.13
2022-12-17T02:44:08.581Z,51.73
2022-12-17T02:46:53.824Z,50.33
2022-12-17T02:49:38.737Z,48.00
2022-12-17T02:52:24.260Z,43.97
2022-12-17T02:55:09.087Z,47.50
2022-12-17T02:57:55.827Z,52.67
2022-12-17T03:00:40.546Z,49.13
2022-12-17T03:03:25.839Z,46.33
2022-12-17T03:06:10.638Z,44.87
2022-12-17T03:08:55.478Z,46.87
2022-12-17T03:11:40.452Z,47.57
2022-12-17T03:14:25.058Z,42.63
2022-12-17T03:17:10.237Z,46.03
2022-12-17T03:19:58.167Z,46.43
2022-12-17T03:22:43.286Z,50.00
2022-12-17T03:25:28.130Z,48.50
2022-12-17T03:28:12.987Z,49.47
2022-12-17T03:30:57.951Z,47.53
2022-12-17T03:33:43.037Z,45.43
2022-12-17T03:36:27.939Z,47.87
2022-12-17T03:39:13.006Z,46.83
2022-12-17T03:41:57.859Z,38.33
2022-12-17T03:44:42.797Z,45.30
2022-12-17T03:47:27.602Z,43.87
2022-12-17T03:50:12.364Z,42.53
2022-12-17T03:52:57.279Z,42.33
2022-12-17T03:55:42.394Z,38.33
2022-12-17T03:58:27.074Z,42.93
2022-12-17T04:01:12.088Z,47.87
2022-12-17T04:03:57.369Z,42.27
2022-12-17T04:06:42.305Z,43.30
2022-12-17T04:09:27.042Z,40.07
2022-12-17T04:12:11.748Z,33.03
2022-12-17T04:14:57.203Z,35.93
2022-12-17T04:17:42.006Z,37.30
2022-12-17T04:20:26.977Z,32.80
2022-12-17T04:23:12.014Z,33.60
2022-12-17T04:25:57.087Z,36.10
2022-12-17T04:28:42.267Z,34.60
2022-12-17T04:31:27.324Z,33.57
2022-12-17T04:34:12.418Z,41.80
2022-12-17T04:36:58.195Z,30.87
2022-12-17T04:39:43.264Z,34.50
2022-12-17T04:42:28.573Z,40.80
2022-12-17T04:45:13.531Z,29.20
2022-12-17T04:47:58.748Z,37.00
2022-12-17T04:50:43.672Z,33.67
2022-12-17T04:53:28.959Z,33.30
2022-12-17T04:56:14.708Z,31.33
2022-12-17T04:59:00.126Z,32.40
2022-12-17T05:01:45.159Z,34.80
2022-12-17T05:04:29.999Z,33.03
2022-12-17T05:07:14.875Z,35.37
2022-12-17T05:09:59.715Z,32.97
2022-12-17T05:12:44.830Z,28.43
2022-12-17T05:15:29.840Z,31.47
2022-12-17T05:18:23.543Z,32.30
2022-12-17T05:21:08.397Z,33.23
2022-12-17T05:23:53.504Z,34.47
2022-12-17T05:26:43.751Z,36.60
2022-12-17T05:29:30.388Z,31.00
2022-12-17T05:32:15.746Z,30.53
2022-12-17T05:35:00.513Z,32.53
2022-12-17T05:37:45.223Z,26.23
2022-12-17T05:40:30.786Z,29.03
2022-12-17T05:43:22.498Z,33.53
2022-12-17T05:46:08.234Z,32.20
2022-12-17T05:48:53.753Z,31.83
2022-12-17T05:51:39.692Z,37.00
2022-12-17T05:54:25.115Z,34.73
2022-12-17T05:57:10.426Z,35.40
2022-12-17T05:59:55.649Z,34.93
2022-12-17T06:02:40.792Z,36.37
2022-12-17T06:05:26.373Z,38.70
2022-12-17T06:08:11.293Z,33.60
2022-12-17T06:10:56.319Z,35.50
2022-12-17T06:13:41.055Z,32.50
2022-12-17T06:16:25.994Z,29.43
2022-12-17T06:19:11.294Z,29.33
2022-12-17T06:21:55.975Z,35.50
2022-12-17T06:24:45.755Z,30.87
2022-12-17T06:27:31.630Z,28.43
2022-12-17T06:30:18.915Z,35.50
2022-12-17T06:33:04.682Z,35.50
2022-12-17T06:35:49.545Z,28.23
2022-12-17T06:38:34.340Z,31.10
2022-12-17T06:41:20.372Z,26.90
2022-12-17T06:44:05.091Z,38.20
2022-12-17T06:46:50.252Z,28.07
2022-12-17T06:49:35.086Z,30.07
2022-12-17T06:52:20.298Z,28.70
2022-12-17T06:55:05.593Z,26.63
2022-12-17T06:57:50.804Z,27.20
2022-12-17T07:00:36.303Z,26.93
2022-12-17T07:03:24.299Z,30.07
2022-12-17T07:06:09.058Z,23.83
2022-12-17T07:08:54.025Z,27.87
2022-12-17T07:11:39.265Z,27.37
2022-12-17T07:14:24.464Z,23.57
2022-12-17T07:17:09.533Z,26.77
2022-12-17T07:19:54.447Z,26.67
2022-12-17T07:22:39.297Z,29.40
2022-12-17T07:25:24.651Z,26.10
2022-12-17T07:28:16.161Z,25.93
2022-12-17T07:31:01.092Z,25.37
2022-12-17T07:33:45.971Z,29.17
2022-12-17T07:36:30.809Z,23.00
2022-12-17T07:39:15.579Z,29.40
2022-12-17T07:42:00.472Z,27.43
2022-12-17T07:44:45.232Z,25.13
2022-12-17T07:47:30.026Z,26.80
2022-12-17T07:50:14.807Z,30.73
2022-12-17T07:52:59.658Z,24.00
2022-12-17T07:55:44.738Z,23.50
2022-12-17T07:58:30.225Z,21.87
2022-12-17T08:01:19.250Z,22.83
2022-12-17T08:04:04.292Z,26.37
2022-12-17T08:06:48.987Z,28.33
2022-12-17T08:09:33.897Z,23.10
2022-12-17T08:12:18.673Z,19.33
2022-12-17T08:15:03.385Z,20.53
2022-12-17T08:17:48.075Z,19.27
2022-12-17T08:20:33.147Z,23.07
2022-12-17T08:23:22.144Z,29.10
2022-12-17T08:26:07.141Z,17.07
2022-12-17T08:28:52.163Z,17.23
2022-12-17T08:31:38.575Z,23.83
2022-12-17T08:34:23.503Z,18.20
2022-12-17T08:37:08.468Z,26.73
2022-12-17T08:39:53.126Z,19.10
2022-12-17T08:42:37.962Z,23.03
2022-12-17T08:45:23.452Z,25.33
2022-12-17T08:48:08.390Z,26.03
2022-12-17T08:50:53.256Z,23.77
2022-12-17T08:53:38.330Z,26.53
2022-12-17T08:56:23.954Z,23.33
2022-12-17T08:59:08.642Z,20.93
2022-12-17T09:01:53.452Z,23.13
2022-12-17T09:04:38.229Z,25.90
2022-12-17T09:07:23.075Z,21.17
2022-12-17T09:10:07.814Z,22.23
2022-12-17T09:12:52.575Z,25.80
2022-12-17T09:15:37.575Z,21.30
2022-12-17T09:18:22.991Z,20.87
2022-12-17T09:21:14.728Z,18.20
2022-12-17T09:24:00.037Z,19.33
2022-12-17T09:26:45.000Z,19.43
2022-12-17T09:29:29.823Z,22.23
2022-12-17T09:32:14.654Z,18.37
2022-12-17T09:34:59.474Z,21.97
2022-12-17T09:37:44.683Z,20.97
2022-12-17T09:40:37.029Z,22.80
2022-12-17T09:43:33.542Z,18.67
2022-12-17T09:46:32.042Z,18.77
2022-12-17T09:49:27.473Z,20.63
2022-12-17T09:52:12.902Z,17.20
2022-12-17T09:55:08.535Z,18.83
2022-12-17T09:57:55.516Z,16.57
2022-12-17T10:00:44.026Z,18.17
2022-12-17T10:03:32.680Z,19.47
2022-12-17T10:06:24.971Z,17.10
2022-12-17T10:09:14.768Z,19.53
2022-12-17T10:12:00.151Z,18.20
2022-12-17T10:14:45.302Z,18.67
2022-12-17T10:17:39.695Z,17.70
2022-12-17T10:20:39.543Z,17.00
2022-12-17T10:23:24.922Z,20.30
2022-12-17T10:26:14.578Z,19.20
2022-12-17T10:29:00.056Z,18.70
2022-12-17T10:31:48.576Z,16.67
2022-12-17T10:34:37.101Z,17.23
2022-12-17T10:37:23.586Z,17.10
2022-12-17T10:40:14.990Z,16.10
2022-12-17T10:42:59.859Z,19.37
2022-12-17T10:45:50.965Z,20.03
2022-12-17T10:48:41.012Z,19.43
2022-12-17T10:51:55.327Z,17.20
2022-12-17T10:54:49.652Z,20.97
2022-12-17T10:57:49.099Z,17.43
2022-12-17T11:00:37.025Z,17.10
2022-12-17T11:03:22.872Z,17.37
2022-12-17T11:06:12.925Z,21.90
2022-12-17T11:08:59.532Z,17.17
2022-12-17T11:11:44.741Z,19.73
2022-12-17T11:14:32.233Z,20.57
2022-12-17T11:17:23.367Z,19.73
2022-12-17T11:20:26.734Z,18.13
2022-12-17T11:23:14.478Z,18.47
2022-12-17T11:26:08.756Z,15.83
2022-12-17T11:28:54.410Z,16.27
2022-12-17T11:32:01.024Z,19.03
2022-12-17T11:35:23.682Z,20.13
2022-12-17T11:38:22.816Z,18.80
2022-12-17T11:41:20.283Z,18.07
2022-12-17T11:44:31.459Z,19.40
2022-12-17T11:47:41.703Z,19.93
2022-12-17T11:50:44.965Z,16.43
2022-12-17T11:53:38.742Z,16.97
2022-12-17T11:56:38.728Z,18.23
2022-12-17T11:59:56.122Z,19.53
2022-12-17T12:03:12.223Z,18.57
2022-12-17T12:06:08.424Z,20.40
2022-12-17T12:09:00.533Z,18.13
2022-12-17T12:12:00.202Z,19.33
2022-12-17T12:15:01.791Z,19.93
2022-12-17T12:18:06.553Z,17.37
2022-12-17T12:21:18.278Z,27.40
2022-12-17T12:24:21.968Z,22.50
2022-12-17T12:27:26.485Z,22.30
2022-12-17T12:30:21.342Z,19.53
2022-12-17T12:33:30.126Z,16.97
2022-12-17T12:36:19.627Z,19.00
2022-12-17T12:39:12.744Z,19.03
2022-12-17T12:42:40.140Z,17.83
2022-12-17T12:45:49.682Z,16.77
2022-12-17T12:48:57.370Z,19.30
2022-12-17T12:51:46.852Z,17.93
2022-12-17T12:54:47.646Z,19.50
2022-12-17T12:57:52.935Z,20.37
2022-12-17T13:00:46.177Z,18.80
2022-12-17T13:03:53.225Z,20.00
2022-12-17T13:06:38.230Z,18.83
2022-12-17T13:09:33.882Z,17.73
2022-12-17T13:12:00.657Z,18.20
2022-12-17T13:14:31.315Z,17.80
2022-12-17T13:17:04.493Z,16.47
2022-12-17T13:19:31.237Z,16.93
2022-12-17T13:22:26.853Z,17.90
2022-12-17T13:24:56.833Z,20.33
2022-12-17T13:27:35.530Z,19.43
2022-12-17T13:30:20.723Z,21.03
2022-12-17T13:33:08.328Z,17.77
2022-12-17T13:35:49.363Z,20.20
2022-12-17T13:38:22.948Z,20.07
2022-12-17T13:41:10.488Z,16.73
2022-12-17T13:43:45.215Z,17.97
2022-12-17T13:46:26.882Z,17.70
2022-12-17T13:49:06.657Z,19.07
2022-12-17T13:51:35.234Z,18.73
2022-12-17T13:54:04.203Z,17.43
2022-12-17T13:56:36.181Z,17.07
2022-12-17T13:59:09.316Z,20.23
2022-12-17T14:01:45.352Z,22.57
2022-12-17T14:04:21.535Z,17.27
2022-12-17T14:06:48.468Z,18.40
2022-12-17T14:09:20.161Z,18.50
2022-12-17T14:12:06.718Z,18.07
2022-12-17T14:14:36.468Z,15.10
2022-12-17T14:17:03.655Z,16.90
2022-12-17T14:19:32.040Z,18.13
2022-12-17T14:21:59.282Z,19.80
2022-12-17T14:24:29.118Z,20.63
2022-12-17T14:27:00.675Z,19.27
2022-12-17T14:29:29.542Z,17.03
2022-12-17T14:32:01.299Z,16.90
2022-12-17T14:34:28.036Z,17.40
2022-12-17T14:37:00.127Z,18.53
2022-12-17T14:39:32.035Z,17.97
2022-12-17T14:42:25.566Z,16.13
2022-12-17T14:45:06.282Z,16.80
2022-12-17T14:47:34.700Z,18.77
2022-12-17T14:50:30.361Z,17.53
2022-12-17T14:52:58.725Z,16.93
2022-12-17T14:55:55.287Z,18.90
2022-12-17T14:58:24.626Z,19.87
2022-12-17T15:01:06.798Z,15.87
2022-12-17T15:03:39.027Z,18.37
2022-12-17T15:06:08.400Z,16.63
2022-12-17T15:08:43.171Z,21.37
2022-12-17T15:11:15.224Z,19.57
2022-12-17T15:13:42.393Z,20.57
2022-12-17T15:16:09.111Z,17.60
2022-12-17T15:18:35.825Z,19.20
2022-12-17T15:21:03.298Z,21.17
2022-12-17T15:23:31.029Z,20.27
2022-12-17T15:25:57.456Z,21.50
2022-12-17T15:28:26.894Z,22.73
2022-12-17T15:30:53.414Z,23.83
2022-12-17T15:33:19.922Z,23.40
2022-12-17T15:35:46.391Z,18.27
2022-12-17T15:38:12.843Z,19.47
2022-12-17T15:40:39.592Z,27.27
2022-12-17T15:43:12.276Z,21.50
2022-12-17T15:45:43.866Z,23.00
2022-12-17T15:48:12.025Z,20.57
2022-12-17T15:50:38.836Z,23.90
2022-12-17T15:53:06.044Z,17.40
2022-12-17T15:55:32.534Z,21.00
2022-12-17T15:57:58.967Z,20.43
2022-12-17T16:00:25.408Z,18.57
2022-12-17T16:02:52.125Z,20.63
2022-12-17T16:05:19.534Z,21.40
2022-12-17T16:07:45.891Z,19.37
2022-12-17T16:10:13.282Z,19.97
2022-12-17T16:12:39.898Z,18.63
2022-12-17T16:15:08.028Z,17.23
2022-12-17T16:17:34.775Z,24.30
2022-12-17T16:20:01.247Z,20.83
2022-12-17T16:22:28.268Z,20.53
2022-12-17T16:24:55.087Z,24.57
2022-12-17T16:27:21.690Z,23.30
2022-12-17T16:29:48.193Z,25.27
2022-12-17T16:32:15.651Z,27.13
2022-12-17T16:34:42.361Z,29.97
2022-12-17T16:37:09.172Z,22.23
2022-12-17T16:39:35.683Z,24.67
2022-12-17T16:42:02.181Z,22.87
2022-12-17T16:44:28.620Z,24.83
2022-12-17T16:46:55.277Z,23.70
2022-12-17T16:49:23.737Z,22.87
2022-12-17T16:51:55.299Z,25.57
2022-12-17T16:54:26.283Z,25.23
2022-12-17T16:56:53.224Z,27.60
2022-12-17T16:59:20.210Z,32.53
2022-12-17T17:01:48.751Z,37.67
2022-12-17T17:04:16.668Z,39.33
2022-12-17T17:06:46.674Z,36.77
2022-12-17T17:09:14.054Z,33.53
2022-12-17T17:11:41.065Z,32.47
2022-12-17T17:14:08.138Z,30.30
2022-12-17T17:16:35.560Z,34.20
2022-12-17T17:19:04.996Z,29.00
2022-12-17T17:21:36.486Z,24.77
2022-12-17T17:24:20.951Z,28.93
2022-12-17T17:26:48.371Z,27.00
2022-12-17T17:29:14.775Z,28.17
2022-12-17T17:34:27.704Z,29.77
2022-12-17T17:36:54.065Z,29.10
2022-12-17T17:39:20.427Z,27.07
2022-12-17T17:41:46.916Z,31.43
2022-12-17T17:44:14.149Z,28.87
2022-12-17T17:46:41.362Z,30.93
2022-12-17T17:49:08.362Z,30.83
2022-12-17T17:52:08.431Z,31.67
2022-12-17T17:54:24.163Z,29.93
2022-12-17T17:56:50.746Z,29.13
2022-12-17T17:59:19.282Z,30.40
2022-12-17T18:01:49.661Z,29.03
2022-12-17T18:04:19.995Z,28.23
2022-12-17T18:07:15.969Z,22.43
2022-12-17T18:09:33.913Z,31.00
2022-12-17T18:12:20.357Z,32.50
2022-12-17T18:15:11.877Z,27.40
2022-12-17T18:17:33.217Z,28.83
2022-12-17T18:19:59.692Z,27.20
2022-12-17T18:22:26.118Z,23.57
2022-12-17T18:24:52.527Z,29.37
2022-12-17T18:27:18.943Z,24.67
2022-12-17T18:29:45.345Z,26.93
2022-12-17T18:32:11.742Z,25.83
2022-12-17T18:34:38.181Z,22.70
2022-12-17T18:37:05.192Z,25.73
2022-12-17T18:39:31.572Z,26.33
2022-12-17T18:42:16.591Z,29.03
2022-12-17T18:44:42.988Z,24.17
2022-12-17T18:47:10.482Z,27.23
2022-12-17T18:49:37.576Z,24.10
2022-12-17T18:52:03.991Z,20.27
2022-12-17T18:54:31.148Z,19.70
2022-12-17T18:57:02.126Z,21.73
2022-12-17T18:59:30.304Z,23.13
2022-12-17T19:01:57.638Z,22.43
2022-12-17T19:04:25.656Z,24.63
2022-12-17T19:06:53.734Z,24.37
2022-12-17T19:09:26.369Z,22.37
2022-12-17T19:11:53.527Z,21.37
2022-12-17T19:14:22.402Z,22.90
2022-12-17T19:16:50.962Z,21.80
2022-12-17T19:19:18.280Z,20.90
2022-12-17T19:21:44.710Z,22.17
2022-12-17T19:24:17.631Z,21.30
2022-12-17T19:26:44.576Z,19.63
2022-12-17T19:29:16.571Z,20.40
2022-12-17T19:31:43.734Z,20.67
2022-12-17T19:34:12.775Z,20.43
2022-12-17T19:36:40.745Z,17.17
2022-12-17T19:39:10.930Z,17.37
2022-12-17T19:41:37.352Z,18.00
2022-12-17T19:44:05.967Z,18.00
2022-12-17T19:46:34.401Z,22.87
2022-12-17T19:49:03.026Z,18.77
2022-12-17T19:51:31.404Z,21.30
2022-12-17T19:54:00.715Z,22.40
2022-12-17T19:56:31.910Z,17.83
2022-12-17T19:59:06.750Z,19.53
2022-12-17T20:01:40.325Z,22.10
2022-12-17T20:04:06.867Z,17.87
2022-12-17T20:06:35.064Z,19.67
2022-12-17T20:09:04.480Z,18.00
2022-12-17T20:11:34.015Z,19.83
2022-12-17T20:14:17.657Z,19.03
2022-12-17T20:16:48.673Z,18.03
2022-12-17T20:19:18.188Z,17.27
2022-12-17T20:21:44.872Z,15.87
2022-12-17T20:24:12.069Z,19.57
2022-12-17T20:26:39.544Z,16.77
2022-12-17T20:29:06.887Z,17.67
2022-12-17T20:31:34.204Z,17.70
2022-12-17T20:34:01.915Z,17.17
2022-12-17T20:36:28.345Z,16.70
2022-12-17T20:38:54.973Z,19.63
2022-12-17T20:41:26.704Z,18.37
2022-12-17T20:43:53.509Z,19.43
2022-12-17T20:46:22.038Z,17.33
2022-12-17T20:48:48.870Z,18.73
2022-12-17T20:51:21.500Z,17.93
2022-12-17T20:53:53.669Z,19.27
2022-12-17T20:56:26.196Z,17.07
2022-12-17T20:58:54.778Z,20.23
2022-12-17T21:01:23.677Z,19.60
2022-12-17T21:03:51.863Z,22.47
2022-12-17T21:06:24.282Z,18.57
2022-12-17T21:08:52.927Z,18.70
2022-12-17T21:11:22.453Z,24.07
2022-12-17T21:13:49.054Z,24.67
2022-12-17T21:16:18.314Z,23.80
2022-12-17T21:18:45.267Z,23.50
2022-12-17T21:21:18.481Z,20.07
2022-12-17T21:23:46.611Z,20.17
2022-12-17T21:26:20.484Z,17.40
2022-12-17T21:28:48.572Z,20.30
2022-12-17T21:31:21.020Z,19.90
2022-12-17T21:33:48.697Z,19.47
2022-12-17T21:36:16.834Z,16.83
2022-12-17T21:38:43.536Z,14.77
2022-12-17T21:41:12.783Z,19.83
2022-12-17T21:43:40.329Z,18.53
2022-12-17T21:46:08.633Z,16.80
2022-12-17T21:48:41.681Z,24.67
2022-12-17T21:51:10.616Z,17.27
2022-12-17T21:53:42.065Z,16.73
2022-12-17T21:56:11.025Z,14.37
2022-12-17T21:58:38.088Z,15.97
2022-12-17T22:01:29.092Z,14.23
2022-12-17T22:03:57.930Z,15.27
2022-12-17T22:06:30.221Z,15.50
2022-12-17T22:09:01.050Z,14.50
2022-12-17T22:11:33.627Z,14.57
2022-12-17T22:14:07.371Z,12.83
2022-12-17T22:16:47.307Z,12.50
2022-12-17T22:19:21.254Z,13.57
2022-12-17T22:21:49.985Z,11.77
2022-12-17T22:24:19.618Z,12.27
2022-12-17T22:26:46.782Z,15.33
2022-12-17T22:29:33.834Z,11.80
2022-12-17T22:32:18.941Z,12.87
2022-12-17T22:35:17.130Z,14.70
2022-12-17T22:39:45.781Z,11.77
2022-12-17T22:43:33.085Z,12.57
2022-12-17T22:44:52.131Z,11.83
2022-12-17T22:46:15.695Z,11.77
2022-12-17T22:48:42.100Z,16.47
2022-12-17T22:51:10.547Z,14.70
2022-12-17T22:53:39.618Z,14.57
2022-12-17T22:56:18.574Z,11.30
2022-12-17T22:58:53.619Z,14.27
2022-12-17T23:01:23.142Z,12.70
2022-12-17T23:03:50.158Z,13.97
2022-12-17T23:06:18.306Z,12.13
2022-12-17T23:08:45.201Z,14.10
2022-12-17T23:11:15.466Z,12.83
2022-12-17T23:13:42.467Z,11.07
2022-12-17T23:16:11.334Z,11.83
2022-12-17T23:18:37.710Z,11.93
2022-12-17T23:21:30.386Z,10.87
2022-12-17T23:23:57.787Z,11.50
2022-12-17T23:26:27.382Z,11.33
2022-12-17T23:29:07.022Z,11.37
2022-12-17T23:31:36.546Z,10.30
2022-12-17T23:34:03.604Z,10.60
2022-12-17T23:36:30.493Z,10.47
2022-12-17T23:38:57.357Z,12.20
2022-12-17T23:41:26.936Z,12.77
2022-12-17T23:43:53.963Z,15.23
2022-12-17T23:46:21.426Z,11.97
2022-12-17T23:48:48.127Z,10.93
2022-12-17T23:51:17.126Z,12.53
2022-12-17T23:53:44.147Z,10.43
2022-12-17T23:56:14.368Z,10.60
2022-12-17T23:58:42.454Z,10.77
